sensor_id;sensor_type;location;lat;lon;timestamp;temperature;humidity
20744;DHT22;56303;52.160;-0.428;2023-07-02T00:00:06;15.60;99.90
20744;DHT22;56303;52.160;-0.428;2023-07-02T00:02:35;15.50;99.90
20744;DHT22;56303;52.160;-0.428;2023-07-02T00:05:02;15.70;99.90
20744;DHT22;56303;52.160;-0.428;2023-07-02T00:07:29;15.20;99.90
20744;DHT22;56303;52.160;-0.428;2023-07-02T00:09:56;14.90;99.90
20744;DHT22;56303;52.160;-0.428;2023-07-02T00:12:23;15.10;99.90
20744;DHT22;56303;52.160;-0.428;2023-07-02T00:14:50;15.10;99.90
20744;DHT22;56303;52.160;-0.428;2023-07-02T00:17:20;15.30;99.90
20744;DHT22;56303;52.160;-0.428;2023-07-02T00:19:47;15.10;99.90
20744;DHT22;56303;52.160;-0.428;2023-07-02T00:22:19;15.10;99.90
20744;DHT22;56303;52.160;-0.428;2023-07-02T00:24:46;15.30;99.90
20744;DHT22;56303;52.160;-0.428;2023-07-02T00:27:13;15.20;99.90
20744;DHT22;56303;52.160;-0.428;2023-07-02T00:29:40;15.20;99.90
20744;DHT22;56303;52.160;-0.428;2023-07-02T00:32:07;15.00;99.90
20744;DHT22;56303;52.160;-0.428;2023-07-02T00:34:34;14.90;99.90
20744;DHT22;56303;52.160;-0.428;2023-07-02T00:37:01;15.00;99.90
20744;DHT22;56303;52.160;-0.428;2023-07-02T00:39:27;15.00;99.90
20744;DHT22;56303;52.160;-0.428;2023-07-02T00:42:00;15.20;99.90
20744;DHT22;56303;52.160;-0.428;2023-07-02T00:44:27;15.00;99.90
20744;DHT22;56303;52.160;-0.428;2023-07-02T00:46:54;15.10;99.90
20744;DHT22;56303;52.160;-0.428;2023-07-02T00:49:22;14.90;99.90
20744;DHT22;56303;52.160;-0.428;2023-07-02T00:51:52;14.90;99.90
20744;DHT22;56303;52.160;-0.428;2023-07-02T00:54:19;15.00;99.90
20744;DHT22;56303;52.160;-0.428;2023-07-02T00:56:46;14.80;99.90
20744;DHT22;56303;52.160;-0.428;2023-07-02T00:59:13;14.70;99.90
20744;DHT22;56303;52.160;-0.428;2023-07-02T01:01:40;14.60;99.90
20744;DHT22;56303;52.160;-0.428;2023-07-02T01:04:07;14.50;99.90
20744;DHT22;56303;52.160;-0.428;2023-07-02T01:06:39;14.60;99.90
20744;DHT22;56303;52.160;-0.428;2023-07-02T01:09:09;14.70;99.90
20744;DHT22;56303;52.160;-0.428;2023-07-02T01:14:10;14.60;99.90
20744;DHT22;56303;52.160;-0.428;2023-07-02T01:16:42;14.40;99.90
20744;DHT22;56303;52.160;-0.428;2023-07-02T01:22:08;13.90;99.90
20744;DHT22;56303;52.160;-0.428;2023-07-02T01:24:41;13.80;99.90
20744;DHT22;56303;52.160;-0.428;2023-07-02T01:27:08;13.90;99.90
20744;DHT22;56303;52.160;-0.428;2023-07-02T01:29:37;14.00;99.90
20744;DHT22;56303;52.160;-0.428;2023-07-02T01:32:04;13.90;99.90
20744;DHT22;56303;52.160;-0.428;2023-07-02T01:34:32;14.10;99.90
20744;DHT22;56303;52.160;-0.428;2023-07-02T01:36:58;14.00;99.90
20744;DHT22;56303;52.160;-0.428;2023-07-02T01:39:25;14.10;99.90
20744;DHT22;56303;52.160;-0.428;2023-07-02T01:41:55;13.60;99.90
20744;DHT22;56303;52.160;-0.428;2023-07-02T01:44:22;13.60;99.90
20744;DHT22;56303;52.160;-0.428;2023-07-02T01:46:49;13.70;99.90
20744;DHT22;56303;52.160;-0.428;2023-07-02T01:49:17;13.20;99.90
20744;DHT22;56303;52.160;-0.428;2023-07-02T01:51:51;13.40;99.90
20744;DHT22;56303;52.160;-0.428;2023-07-02T01:54:20;13.40;99.90
20744;DHT22;56303;52.160;-0.428;2023-07-02T01:56:47;13.30;99.90
20744;DHT22;56303;52.160;-0.428;2023-07-02T01:59:15;13.30;99.90
20744;DHT22;56303;52.160;-0.428;2023-07-02T02:01:42;13.50;99.90
20744;DHT22;56303;52.160;-0.428;2023-07-02T02:04:09;13.50;99.90
20744;DHT22;56303;52.160;-0.428;2023-07-02T02:06:37;13.50;99.90
20744;DHT22;56303;52.160;-0.428;2023-07-02T02:09:05;13.50;99.90
20744;DHT22;56303;52.160;-0.428;2023-07-02T02:11:33;13.50;99.90
20744;DHT22;56303;52.160;-0.428;2023-07-02T02:14:00;13.40;99.90
20744;DHT22;56303;52.160;-0.428;2023-07-02T02:16:30;13.70;99.90
20744;DHT22;56303;52.160;-0.428;2023-07-02T02:18:57;13.60;99.90
20744;DHT22;56303;52.160;-0.428;2023-07-02T02:21:24;13.70;99.90
20744;DHT22;56303;52.160;-0.428;2023-07-02T02:23:51;13.60;99.90
20744;DHT22;56303;52.160;-0.428;2023-07-02T02:26:18;13.50;99.90
20744;DHT22;56303;52.160;-0.428;2023-07-02T02:28:44;13.70;99.90
20744;DHT22;56303;52.160;-0.428;2023-07-02T02:31:11;13.70;99.90
20744;DHT22;56303;52.160;-0.428;2023-07-02T02:33:38;13.60;99.90
20744;DHT22;56303;52.160;-0.428;2023-07-02T02:36:05;13.60;99.90
20744;DHT22;56303;52.160;-0.428;2023-07-02T02:38:32;13.50;99.90
20744;DHT22;56303;52.160;-0.428;2023-07-02T02:41:00;13.40;99.90
20744;DHT22;56303;52.160;-0.428;2023-07-02T02:43:28;13.50;99.90
20744;DHT22;56303;52.160;-0.428;2023-07-02T02:45:55;13.60;99.90
20744;DHT22;56303;52.160;-0.428;2023-07-02T02:48:22;13.50;99.90
20744;DHT22;56303;52.160;-0.428;2023-07-02T02:50:49;13.60;99.90
20744;DHT22;56303;52.160;-0.428;2023-07-02T02:53:16;13.50;99.90
20744;DHT22;56303;52.160;-0.428;2023-07-02T02:55:43;13.60;99.90
20744;DHT22;56303;52.160;-0.428;2023-07-02T02:58:10;13.60;99.90
20744;DHT22;56303;52.160;-0.428;2023-07-02T03:00:37;13.40;99.90
20744;DHT22;56303;52.160;-0.428;2023-07-02T03:03:08;13.60;99.90
20744;DHT22;56303;52.160;-0.428;2023-07-02T03:05:36;13.60;99.90
20744;DHT22;56303;52.160;-0.428;2023-07-02T03:08:03;13.40;99.90
20744;DHT22;56303;52.160;-0.428;2023-07-02T03:10:29;13.70;99.90
20744;DHT22;56303;52.160;-0.428;2023-07-02T03:12:56;13.40;99.90
20744;DHT22;56303;52.160;-0.428;2023-07-02T03:15:23;13.60;99.90
20744;DHT22;56303;52.160;-0.428;2023-07-02T03:17:50;13.60;99.90
20744;DHT22;56303;52.160;-0.428;2023-07-02T03:20:17;13.40;99.90
20744;DHT22;56303;52.160;-0.428;2023-07-02T03:22:44;13.40;99.90
20744;DHT22;56303;52.160;-0.428;2023-07-02T03:25:10;13.60;99.90
20744;DHT22;56303;52.160;-0.428;2023-07-02T03:27:37;13.20;99.90
20744;DHT22;56303;52.160;-0.428;2023-07-02T03:30:05;13.10;99.90
20744;DHT22;56303;52.160;-0.428;2023-07-02T03:32:32;13.10;99.90
20744;DHT22;56303;52.160;-0.428;2023-07-02T03:34:59;13.00;99.90
20744;DHT22;56303;52.160;-0.428;2023-07-02T03:37:26;13.20;99.90
20744;DHT22;56303;52.160;-0.428;2023-07-02T03:39:53;13.10;99.90
20744;DHT22;56303;52.160;-0.428;2023-07-02T03:42:20;12.80;99.90
20744;DHT22;56303;52.160;-0.428;2023-07-02T03:44:46;12.70;99.90
20744;DHT22;56303;52.160;-0.428;2023-07-02T03:47:13;12.60;99.90
20744;DHT22;56303;52.160;-0.428;2023-07-02T03:49:42;12.60;99.90
20744;DHT22;56303;52.160;-0.428;2023-07-02T03:52:09;12.70;99.90
20744;DHT22;56303;52.160;-0.428;2023-07-02T03:54:39;12.80;99.90
20744;DHT22;56303;52.160;-0.428;2023-07-02T03:57:06;12.80;99.90
20744;DHT22;56303;52.160;-0.428;2023-07-02T03:59:33;12.70;99.90
20744;DHT22;56303;52.160;-0.428;2023-07-02T04:02:00;12.60;99.90
20744;DHT22;56303;52.160;-0.428;2023-07-02T04:04:27;12.80;99.90
20744;DHT22;56303;52.160;-0.428;2023-07-02T04:06:54;12.70;99.90
20744;DHT22;56303;52.160;-0.428;2023-07-02T04:09:21;12.70;99.90
20744;DHT22;56303;52.160;-0.428;2023-07-02T04:11:48;12.80;99.90
20744;DHT22;56303;52.160;-0.428;2023-07-02T04:14:15;12.70;99.90
20744;DHT22;56303;52.160;-0.428;2023-07-02T04:16:44;12.70;99.90
20744;DHT22;56303;52.160;-0.428;2023-07-02T04:19:11;12.50;99.90
20744;DHT22;56303;52.160;-0.428;2023-07-02T04:21:38;12.50;99.90
20744;DHT22;56303;52.160;-0.428;2023-07-02T04:24:05;12.60;99.90
20744;DHT22;56303;52.160;-0.428;2023-07-02T04:26:33;12.70;99.90
20744;DHT22;56303;52.160;-0.428;2023-07-02T04:29:20;13.00;99.90
20744;DHT22;56303;52.160;-0.428;2023-07-02T04:31:47;12.70;99.90
20744;DHT22;56303;52.160;-0.428;2023-07-02T04:34:14;12.80;99.90
20744;DHT22;56303;52.160;-0.428;2023-07-02T04:36:41;12.70;99.90
20744;DHT22;56303;52.160;-0.428;2023-07-02T04:39:08;12.70;99.90
20744;DHT22;56303;52.160;-0.428;2023-07-02T04:41:35;12.60;99.90
20744;DHT22;56303;52.160;-0.428;2023-07-02T04:44:02;13.00;99.90
20744;DHT22;56303;52.160;-0.428;2023-07-02T04:46:29;12.70;99.90
20744;DHT22;56303;52.160;-0.428;2023-07-02T04:48:57;12.80;99.90
20744;DHT22;56303;52.160;-0.428;2023-07-02T04:51:23;12.80;99.90
20744;DHT22;56303;52.160;-0.428;2023-07-02T04:53:50;13.00;99.90
20744;DHT22;56303;52.160;-0.428;2023-07-02T04:56:17;13.00;99.90
20744;DHT22;56303;52.160;-0.428;2023-07-02T04:58:44;13.10;99.90
20744;DHT22;56303;52.160;-0.428;2023-07-02T05:01:11;13.00;99.90
20744;DHT22;56303;52.160;-0.428;2023-07-02T05:03:38;13.10;99.90
20744;DHT22;56303;52.160;-0.428;2023-07-02T05:06:05;13.10;99.90
20744;DHT22;56303;52.160;-0.428;2023-07-02T05:08:32;13.10;99.90
20744;DHT22;56303;52.160;-0.428;2023-07-02T05:10:59;13.10;99.90
20744;DHT22;56303;52.160;-0.428;2023-07-02T05:13:26;13.50;99.90
20744;DHT22;56303;52.160;-0.428;2023-07-02T05:15:53;13.40;99.90
20744;DHT22;56303;52.160;-0.428;2023-07-02T05:18:20;13.20;99.90
20744;DHT22;56303;52.160;-0.428;2023-07-02T05:20:46;13.40;99.90
20744;DHT22;56303;52.160;-0.428;2023-07-02T05:23:14;13.50;99.90
20744;DHT22;56303;52.160;-0.428;2023-07-02T05:25:41;13.20;99.90
20744;DHT22;56303;52.160;-0.428;2023-07-02T05:28:07;13.50;99.90
20744;DHT22;56303;52.160;-0.428;2023-07-02T05:30:34;13.60;99.90
20744;DHT22;56303;52.160;-0.428;2023-07-02T05:33:01;13.40;99.90
20744;DHT22;56303;52.160;-0.428;2023-07-02T05:35:28;13.30;99.90
20744;DHT22;56303;52.160;-0.428;2023-07-02T05:37:55;13.40;99.90
20744;DHT22;56303;52.160;-0.428;2023-07-02T05:40:22;13.70;99.90
20744;DHT22;56303;52.160;-0.428;2023-07-02T05:42:48;13.80;99.90
20744;DHT22;56303;52.160;-0.428;2023-07-02T05:45:15;13.80;99.90
20744;DHT22;56303;52.160;-0.428;2023-07-02T05:47:42;14.00;99.90
20744;DHT22;56303;52.160;-0.428;2023-07-02T05:50:09;14.00;99.90
20744;DHT22;56303;52.160;-0.428;2023-07-02T05:52:36;14.00;99.90
20744;DHT22;56303;52.160;-0.428;2023-07-02T05:55:03;14.20;99.90
20744;DHT22;56303;52.160;-0.428;2023-07-02T05:57:30;14.10;99.90
20744;DHT22;56303;52.160;-0.428;2023-07-02T05:59:57;14.00;99.90
20744;DHT22;56303;52.160;-0.428;2023-07-02T06:02:24;14.10;99.90
20744;DHT22;56303;52.160;-0.428;2023-07-02T06:04:51;14.30;99.90
20744;DHT22;56303;52.160;-0.428;2023-07-02T06:07:18;14.20;99.90
20744;DHT22;56303;52.160;-0.428;2023-07-02T06:09:45;14.10;99.90
20744;DHT22;56303;52.160;-0.428;2023-07-02T06:12:12;14.20;99.90
20744;DHT22;56303;52.160;-0.428;2023-07-02T06:14:39;14.30;99.90
20744;DHT22;56303;52.160;-0.428;2023-07-02T06:17:06;14.40;99.90
20744;DHT22;56303;52.160;-0.428;2023-07-02T06:19:37;14.50;99.90
20744;DHT22;56303;52.160;-0.428;2023-07-02T06:22:04;14.50;99.90
20744;DHT22;56303;52.160;-0.428;2023-07-02T06:24:31;14.70;99.90
20744;DHT22;56303;52.160;-0.428;2023-07-02T06:26:58;15.00;99.90
20744;DHT22;56303;52.160;-0.428;2023-07-02T06:29:24;14.80;99.90
20744;DHT22;56303;52.160;-0.428;2023-07-02T06:31:51;15.00;99.90
20744;DHT22;56303;52.160;-0.428;2023-07-02T06:34:18;15.20;99.90
20744;DHT22;56303;52.160;-0.428;2023-07-02T06:36:45;15.10;99.90
20744;DHT22;56303;52.160;-0.428;2023-07-02T06:39:12;15.10;99.90
20744;DHT22;56303;52.160;-0.428;2023-07-02T06:41:39;15.20;99.90
20744;DHT22;56303;52.160;-0.428;2023-07-02T06:44:05;15.50;99.90
20744;DHT22;56303;52.160;-0.428;2023-07-02T06:46:32;15.40;99.90
20744;DHT22;56303;52.160;-0.428;2023-07-02T06:48:59;15.50;99.90
20744;DHT22;56303;52.160;-0.428;2023-07-02T06:51:26;16.00;99.90
20744;DHT22;56303;52.160;-0.428;2023-07-02T06:53:55;15.90;99.90
20744;DHT22;56303;52.160;-0.428;2023-07-02T06:56:22;16.00;99.90
20744;DHT22;56303;52.160;-0.428;2023-07-02T06:58:49;16.00;99.90
20744;DHT22;56303;52.160;-0.428;2023-07-02T07:01:17;16.00;99.90
20744;DHT22;56303;52.160;-0.428;2023-07-02T07:03:44;16.20;99.90
20744;DHT22;56303;52.160;-0.428;2023-07-02T07:06:11;16.50;99.90
20744;DHT22;56303;52.160;-0.428;2023-07-02T07:08:38;16.20;99.90
20744;DHT22;56303;52.160;-0.428;2023-07-02T07:11:06;16.60;99.90
20744;DHT22;56303;52.160;-0.428;2023-07-02T07:13:33;16.50;99.90
20744;DHT22;56303;52.160;-0.428;2023-07-02T07:15:59;16.40;99.90
20744;DHT22;56303;52.160;-0.428;2023-07-02T07:18:26;16.40;99.90
20744;DHT22;56303;52.160;-0.428;2023-07-02T07:20:56;16.70;99.90
20744;DHT22;56303;52.160;-0.428;2023-07-02T07:23:23;16.70;99.90
20744;DHT22;56303;52.160;-0.428;2023-07-02T07:25:50;16.60;99.90
20744;DHT22;56303;52.160;-0.428;2023-07-02T07:28:17;16.70;99.90
20744;DHT22;56303;52.160;-0.428;2023-07-02T07:30:44;16.80;99.90
20744;DHT22;56303;52.160;-0.428;2023-07-02T07:33:11;16.70;99.90
20744;DHT22;56303;52.160;-0.428;2023-07-02T07:35:38;16.70;99.90
20744;DHT22;56303;52.160;-0.428;2023-07-02T07:38:05;16.80;99.90
20744;DHT22;56303;52.160;-0.428;2023-07-02T07:40:32;16.90;99.90
20744;DHT22;56303;52.160;-0.428;2023-07-02T07:42:58;16.80;99.90
20744;DHT22;56303;52.160;-0.428;2023-07-02T07:45:25;17.10;99.90
20744;DHT22;56303;52.160;-0.428;2023-07-02T07:47:52;16.80;99.90
20744;DHT22;56303;52.160;-0.428;2023-07-02T07:50:19;16.90;99.90
20744;DHT22;56303;52.160;-0.428;2023-07-02T07:52:47;16.90;99.90
20744;DHT22;56303;52.160;-0.428;2023-07-02T07:55:14;16.90;99.90
20744;DHT22;56303;52.160;-0.428;2023-07-02T07:57:41;17.20;99.90
20744;DHT22;56303;52.160;-0.428;2023-07-02T08:00:09;17.60;99.90
20744;DHT22;56303;52.160;-0.428;2023-07-02T08:02:39;17.80;99.90
20744;DHT22;56303;52.160;-0.428;2023-07-02T08:05:06;17.80;99.90
20744;DHT22;56303;52.160;-0.428;2023-07-02T08:07:33;17.40;99.90
20744;DHT22;56303;52.160;-0.428;2023-07-02T08:10:00;17.50;99.90
20744;DHT22;56303;52.160;-0.428;2023-07-02T08:12:29;17.40;99.90
20744;DHT22;56303;52.160;-0.428;2023-07-02T08:14:56;17.40;99.90
20744;DHT22;56303;52.160;-0.428;2023-07-02T08:17:23;17.50;99.90
20744;DHT22;56303;52.160;-0.428;2023-07-02T08:19:50;17.70;99.90
20744;DHT22;56303;52.160;-0.428;2023-07-02T08:22:17;17.60;99.90
20744;DHT22;56303;52.160;-0.428;2023-07-02T08:24:44;17.80;99.90
20744;DHT22;56303;52.160;-0.428;2023-07-02T08:27:11;17.90;99.90
20744;DHT22;56303;52.160;-0.428;2023-07-02T08:29:40;18.00;99.90
20744;DHT22;56303;52.160;-0.428;2023-07-02T08:32:07;18.10;99.90
20744;DHT22;56303;52.160;-0.428;2023-07-02T08:34:34;17.90;99.90
20744;DHT22;56303;52.160;-0.428;2023-07-02T08:37:01;18.20;99.90
20744;DHT22;56303;52.160;-0.428;2023-07-02T08:39:28;18.50;99.90
20744;DHT22;56303;52.160;-0.428;2023-07-02T08:41:55;18.50;99.90
20744;DHT22;56303;52.160;-0.428;2023-07-02T08:44:22;18.20;99.90
20744;DHT22;56303;52.160;-0.428;2023-07-02T08:46:49;18.50;99.90
20744;DHT22;56303;52.160;-0.428;2023-07-02T08:49:19;19.00;99.90
20744;DHT22;56303;52.160;-0.428;2023-07-02T08:51:46;18.60;99.90
20744;DHT22;56303;52.160;-0.428;2023-07-02T08:54:13;18.50;99.90
20744;DHT22;56303;52.160;-0.428;2023-07-02T08:56:41;18.30;99.90
20744;DHT22;56303;52.160;-0.428;2023-07-02T08:59:09;17.90;99.90
20744;DHT22;56303;52.160;-0.428;2023-07-02T09:01:49;18.00;99.90
20744;DHT22;56303;52.160;-0.428;2023-07-02T09:04:21;17.80;99.90
20744;DHT22;56303;52.160;-0.428;2023-07-02T09:07:08;18.00;99.90
20744;DHT22;56303;52.160;-0.428;2023-07-02T09:09:49;18.30;99.90
20744;DHT22;56303;52.160;-0.428;2023-07-02T09:12:30;18.50;99.90
20744;DHT22;56303;52.160;-0.428;2023-07-02T09:15:08;18.20;99.90
20744;DHT22;56303;52.160;-0.428;2023-07-02T09:17:36;18.20;99.90
20744;DHT22;56303;52.160;-0.428;2023-07-02T09:20:05;18.50;99.90
20744;DHT22;56303;52.160;-0.428;2023-07-02T09:22:35;18.10;99.90
20744;DHT22;56303;52.160;-0.428;2023-07-02T09:25:03;18.50;99.90
20744;DHT22;56303;52.160;-0.428;2023-07-02T09:27:41;18.60;99.90
20744;DHT22;56303;52.160;-0.428;2023-07-02T09:30:13;18.40;99.90
20744;DHT22;56303;52.160;-0.428;2023-07-02T09:32:43;17.90;99.90
20744;DHT22;56303;52.160;-0.428;2023-07-02T09:35:12;18.10;99.90
20744;DHT22;56303;52.160;-0.428;2023-07-02T09:37:42;17.90;99.90
20744;DHT22;56303;52.160;-0.428;2023-07-02T09:40:09;18.30;99.90
20744;DHT22;56303;52.160;-0.428;2023-07-02T09:42:38;18.30;99.90
20744;DHT22;56303;52.160;-0.428;2023-07-02T09:45:08;18.50;99.90
20744;DHT22;56303;52.160;-0.428;2023-07-02T09:47:42;18.40;99.90
20744;DHT22;56303;52.160;-0.428;2023-07-02T09:50:13;18.30;99.90
20744;DHT22;56303;52.160;-0.428;2023-07-02T09:52:42;18.00;99.90
20744;DHT22;56303;52.160;-0.428;2023-07-02T09:55:12;18.20;99.90
20744;DHT22;56303;52.160;-0.428;2023-07-02T09:57:39;18.20;99.90
20744;DHT22;56303;52.160;-0.428;2023-07-02T10:00:07;18.40;99.90
20744;DHT22;56303;52.160;-0.428;2023-07-02T10:02:35;18.40;99.90
20744;DHT22;56303;52.160;-0.428;2023-07-02T10:05:03;17.90;99.90
20744;DHT22;56303;52.160;-0.428;2023-07-02T10:07:31;18.00;99.90
20744;DHT22;56303;52.160;-0.428;2023-07-02T10:10:01;18.10;99.90
20744;DHT22;56303;52.160;-0.428;2023-07-02T10:12:29;18.50;99.90
20744;DHT22;56303;52.160;-0.428;2023-07-02T10:14:59;18.40;99.90
20744;DHT22;56303;52.160;-0.428;2023-07-02T10:19:57;18.20;99.90
20744;DHT22;56303;52.160;-0.428;2023-07-02T10:22:24;18.40;99.90
20744;DHT22;56303;52.160;-0.428;2023-07-02T10:24:58;18.20;99.90
20744;DHT22;56303;52.160;-0.428;2023-07-02T10:27:36;18.70;99.90
20744;DHT22;56303;52.160;-0.428;2023-07-02T10:30:06;18.80;99.90
20744;DHT22;56303;52.160;-0.428;2023-07-02T10:32:34;18.30;99.90
20744;DHT22;56303;52.160;-0.428;2023-07-02T10:35:12;18.40;99.90
20744;DHT22;56303;52.160;-0.428;2023-07-02T10:37:40;18.30;99.90
20744;DHT22;56303;52.160;-0.428;2023-07-02T10:40:07;18.20;99.90
20744;DHT22;56303;52.160;-0.428;2023-07-02T10:42:45;18.20;99.90
20744;DHT22;56303;52.160;-0.428;2023-07-02T10:45:12;17.90;99.90
20744;DHT22;56303;52.160;-0.428;2023-07-02T10:47:40;18.30;99.90
20744;DHT22;56303;52.160;-0.428;2023-07-02T10:50:16;18.30;99.90
20744;DHT22;56303;52.160;-0.428;2023-07-02T10:52:44;18.30;99.90
20744;DHT22;56303;52.160;-0.428;2023-07-02T10:55:16;18.10;99.90
20744;DHT22;56303;52.160;-0.428;2023-07-02T10:57:44;18.20;99.90
20744;DHT22;56303;52.160;-0.428;2023-07-02T11:00:12;18.50;99.90
20744;DHT22;56303;52.160;-0.428;2023-07-02T11:02:39;18.50;99.90
20744;DHT22;56303;52.160;-0.428;2023-07-02T11:05:07;18.80;99.90
20744;DHT22;56303;52.160;-0.428;2023-07-02T11:07:42;18.70;99.90
20744;DHT22;56303;52.160;-0.428;2023-07-02T11:10:16;18.70;99.90
20744;DHT22;56303;52.160;-0.428;2023-07-02T11:12:44;18.90;99.90
20744;DHT22;56303;52.160;-0.428;2023-07-02T11:15:13;18.90;99.90
20744;DHT22;56303;52.160;-0.428;2023-07-02T11:17:41;19.10;99.90
20744;DHT22;56303;52.160;-0.428;2023-07-02T11:20:10;19.20;99.90
20744;DHT22;56303;52.160;-0.428;2023-07-02T11:22:38;19.70;99.90
20744;DHT22;56303;52.160;-0.428;2023-07-02T11:25:19;19.60;99.90
20744;DHT22;56303;52.160;-0.428;2023-07-02T11:27:48;19.60;99.90
20744;DHT22;56303;52.160;-0.428;2023-07-02T11:30:15;19.30;99.90
20744;DHT22;56303;52.160;-0.428;2023-07-02T11:32:50;19.30;99.90
20744;DHT22;56303;52.160;-0.428;2023-07-02T11:35:17;19.40;99.90
20744;DHT22;56303;52.160;-0.428;2023-07-02T11:37:45;19.00;99.90
20744;DHT22;56303;52.160;-0.428;2023-07-02T11:40:12;18.30;99.90
20744;DHT22;56303;52.160;-0.428;2023-07-02T11:42:42;18.30;99.90
20744;DHT22;56303;52.160;-0.428;2023-07-02T11:45:10;18.50;99.90
20744;DHT22;56303;52.160;-0.428;2023-07-02T11:47:38;18.20;99.90
20744;DHT22;56303;52.160;-0.428;2023-07-02T11:50:06;18.40;99.90
20744;DHT22;56303;52.160;-0.428;2023-07-02T11:52:50;18.00;99.90
20744;DHT22;56303;52.160;-0.428;2023-07-02T11:55:17;18.50;99.90
20744;DHT22;56303;52.160;-0.428;2023-07-02T11:57:44;18.80;99.90
20744;DHT22;56303;52.160;-0.428;2023-07-02T12:00:14;19.20;99.90
20744;DHT22;56303;52.160;-0.428;2023-07-02T12:02:41;19.50;99.90
20744;DHT22;56303;52.160;-0.428;2023-07-02T12:05:08;19.20;99.90
20744;DHT22;56303;52.160;-0.428;2023-07-02T12:07:38;19.60;99.90
20744;DHT22;56303;52.160;-0.428;2023-07-02T12:10:07;19.10;99.90
20744;DHT22;56303;52.160;-0.428;2023-07-02T12:12:35;18.60;99.90
20744;DHT22;56303;52.160;-0.428;2023-07-02T12:15:02;18.40;99.90
20744;DHT22;56303;52.160;-0.428;2023-07-02T12:17:29;18.50;99.90
20744;DHT22;56303;52.160;-0.428;2023-07-02T12:19:56;18.70;99.90
20744;DHT22;56303;52.160;-0.428;2023-07-02T12:22:23;19.00;99.90
20744;DHT22;56303;52.160;-0.428;2023-07-02T12:24:50;19.30;99.90
20744;DHT22;56303;52.160;-0.428;2023-07-02T12:27:20;19.60;99.90
20744;DHT22;56303;52.160;-0.428;2023-07-02T12:29:46;19.20;99.90
20744;DHT22;56303;52.160;-0.428;2023-07-02T12:32:15;18.90;99.90
20744;DHT22;56303;52.160;-0.428;2023-07-02T12:34:42;19.40;99.90
20744;DHT22;56303;52.160;-0.428;2023-07-02T12:37:08;19.60;99.90
20744;DHT22;56303;52.160;-0.428;2023-07-02T12:39:35;19.80;99.90
20744;DHT22;56303;52.160;-0.428;2023-07-02T12:42:03;20.00;99.90
20744;DHT22;56303;52.160;-0.428;2023-07-02T12:44:29;20.50;99.90
20744;DHT22;56303;52.160;-0.428;2023-07-02T12:46:56;20.90;99.90
20744;DHT22;56303;52.160;-0.428;2023-07-02T12:49:23;20.60;99.90
20744;DHT22;56303;52.160;-0.428;2023-07-02T12:51:50;20.50;99.90
20744;DHT22;56303;52.160;-0.428;2023-07-02T12:54:17;20.30;99.90
20744;DHT22;56303;52.160;-0.428;2023-07-02T12:56:44;19.80;99.90
20744;DHT22;56303;52.160;-0.428;2023-07-02T12:59:10;19.70;99.90
20744;DHT22;56303;52.160;-0.428;2023-07-02T13:01:37;19.40;99.90
20744;DHT22;56303;52.160;-0.428;2023-07-02T13:04:04;19.40;99.90
20744;DHT22;56303;52.160;-0.428;2023-07-02T13:06:31;19.60;99.90
20744;DHT22;56303;52.160;-0.428;2023-07-02T13:09:01;19.60;99.90
20744;DHT22;56303;52.160;-0.428;2023-07-02T13:11:28;19.90;99.90
20744;DHT22;56303;52.160;-0.428;2023-07-02T13:13:55;19.90;99.90
20744;DHT22;56303;52.160;-0.428;2023-07-02T13:16:22;19.90;99.90
20744;DHT22;56303;52.160;-0.428;2023-07-02T13:18:51;20.00;99.90
20744;DHT22;56303;52.160;-0.428;2023-07-02T13:21:19;19.80;99.90
20744;DHT22;56303;52.160;-0.428;2023-07-02T13:23:46;19.70;99.90
20744;DHT22;56303;52.160;-0.428;2023-07-02T13:26:13;20.40;99.90
20744;DHT22;56303;52.160;-0.428;2023-07-02T13:28:40;19.80;99.90
20744;DHT22;56303;52.160;-0.428;2023-07-02T13:31:07;19.60;99.90
20744;DHT22;56303;52.160;-0.428;2023-07-02T13:33:35;19.90;99.90
20744;DHT22;56303;52.160;-0.428;2023-07-02T13:36:02;19.60;99.90
20744;DHT22;56303;52.160;-0.428;2023-07-02T13:38:29;19.50;99.90
20744;DHT22;56303;52.160;-0.428;2023-07-02T13:40:56;19.70;99.90
20744;DHT22;56303;52.160;-0.428;2023-07-02T13:43:23;19.50;99.90
20744;DHT22;56303;52.160;-0.428;2023-07-02T13:45:50;19.60;99.90
20744;DHT22;56303;52.160;-0.428;2023-07-02T13:48:18;20.00;99.90
20744;DHT22;56303;52.160;-0.428;2023-07-02T13:50:44;19.40;99.90
20744;DHT22;56303;52.160;-0.428;2023-07-02T13:53:11;20.20;99.90
20744;DHT22;56303;52.160;-0.428;2023-07-02T13:55:38;21.00;99.80
20744;DHT22;56303;52.160;-0.428;2023-07-02T13:58:05;21.50;99.50
20744;DHT22;56303;52.160;-0.428;2023-07-02T14:00:32;21.30;98.80
20744;DHT22;56303;52.160;-0.428;2023-07-02T14:02:59;20.90;98.90
20744;DHT22;56303;52.160;-0.428;2023-07-02T14:05:26;20.50;99.30
20744;DHT22;56303;52.160;-0.428;2023-07-02T14:07:53;21.00;99.80
20744;DHT22;56303;52.160;-0.428;2023-07-02T14:10:20;21.40;98.70
20744;DHT22;56303;52.160;-0.428;2023-07-02T14:12:47;20.80;98.70
20744;DHT22;56303;52.160;-0.428;2023-07-02T14:15:14;20.60;99.40
20744;DHT22;56303;52.160;-0.428;2023-07-02T14:17:41;20.50;99.90
20744;DHT22;56303;52.160;-0.428;2023-07-02T14:20:08;20.10;99.80
20744;DHT22;56303;52.160;-0.428;2023-07-02T14:22:36;20.70;99.50
20744;DHT22;56303;52.160;-0.428;2023-07-02T14:25:02;20.50;98.60
20744;DHT22;56303;52.160;-0.428;2023-07-02T14:27:29;20.60;99.10
20744;DHT22;56303;52.160;-0.428;2023-07-02T14:29:56;20.30;98.90
20744;DHT22;56303;52.160;-0.428;2023-07-02T14:32:23;20.20;99.10
20744;DHT22;56303;52.160;-0.428;2023-07-02T14:34:50;20.60;98.90
20744;DHT22;56303;52.160;-0.428;2023-07-02T14:37:17;20.80;99.40
20744;DHT22;56303;52.160;-0.428;2023-07-02T14:39:44;21.20;98.80
20744;DHT22;56303;52.160;-0.428;2023-07-02T14:42:27;22.20;98.10
20744;DHT22;56303;52.160;-0.428;2023-07-02T14:44:54;22.50;97.60
20744;DHT22;56303;52.160;-0.428;2023-07-02T14:47:21;22.50;96.70
20744;DHT22;56303;52.160;-0.428;2023-07-02T14:49:48;21.10;97.20
20744;DHT22;56303;52.160;-0.428;2023-07-02T14:52:15;20.60;98.00
20744;DHT22;56303;52.160;-0.428;2023-07-02T14:54:42;20.40;98.40
20744;DHT22;56303;52.160;-0.428;2023-07-02T14:57:08;20.20;99.30
20744;DHT22;56303;52.160;-0.428;2023-07-02T14:59:35;20.50;98.80
20744;DHT22;56303;52.160;-0.428;2023-07-02T15:02:02;20.30;99.10
20744;DHT22;56303;52.160;-0.428;2023-07-02T15:04:29;20.90;99.10
20744;DHT22;56303;52.160;-0.428;2023-07-02T15:06:56;21.00;98.50
20744;DHT22;56303;52.160;-0.428;2023-07-02T15:09:23;20.90;98.90
20744;DHT22;56303;52.160;-0.428;2023-07-02T15:11:50;20.70;98.40
20744;DHT22;56303;52.160;-0.428;2023-07-02T15:14:17;20.70;99.10
20744;DHT22;56303;52.160;-0.428;2023-07-02T15:16:43;20.80;99.30
20744;DHT22;56303;52.160;-0.428;2023-07-02T15:19:10;20.70;99.80
20744;DHT22;56303;52.160;-0.428;2023-07-02T15:21:39;20.70;99.30
20744;DHT22;56303;52.160;-0.428;2023-07-02T15:24:06;20.70;99.50
20744;DHT22;56303;52.160;-0.428;2023-07-02T15:26:33;21.00;99.90